createdAt,value
2019-04-29T00:01:17.987Z,90.00
2019-04-29T00:03:46.222Z,90.10
2019-04-29T00:06:17.197Z,91.20
2019-04-29T00:08:49.165Z,91.30
2019-04-29T00:11:21.978Z,91.40
2019-04-29T00:13:52.355Z,92.30
2019-04-29T00:16:37.981Z,92.10
2019-04-29T00:19:45.069Z,91.60
2019-04-29T00:22:15.356Z,90.70
2019-04-29T00:24:45.599Z,88.40
2019-04-29T00:27:15.851Z,88.20
2019-04-29T00:29:46.688Z,88.10
2019-04-29T00:32:17.382Z,90.20
2019-04-29T00:34:47.555Z,90.70
2019-04-29T00:37:35.000Z,91.80
2019-04-29T00:40:24.879Z,90.90
2019-04-29T00:43:17.564Z,91.10
2019-04-29T00:45:47.706Z,87.50
2019-04-29T00:48:20.760Z,88.00
2019-04-29T00:50:50.908Z,88.20
2019-04-29T00:53:20.997Z,89.90
2019-04-29T00:55:51.630Z,90.10
2019-04-29T00:58:21.764Z,90.60
2019-04-29T01:00:52.675Z,90.80
2019-04-29T01:03:22.775Z,89.80
2019-04-29T01:05:53.739Z,88.90
2019-04-29T01:08:24.289Z,90.20
2019-04-29T01:10:54.427Z,88.30
2019-04-29T01:13:26.838Z,85.60
2019-04-29T01:15:56.952Z,84.90
2019-04-29T01:18:27.858Z,84.60
2019-04-29T01:20:59.635Z,85.10
2019-04-29T01:23:30.107Z,88.90
2019-04-29T01:26:03.839Z,91.40
2019-04-29T01:28:39.822Z,90.20
2019-04-29T01:31:21.898Z,90.30
2019-04-29T01:33:55.432Z,90.70
2019-04-29T01:36:33.659Z,92.00
2019-04-29T01:39:31.416Z,93.30
2019-04-29T01:42:07.980Z,93.70
2019-04-29T01:44:38.716Z,93.80
2019-04-29T01:47:10.599Z,92.70
2019-04-29T01:49:43.091Z,92.00
2019-04-29T01:52:14.230Z,90.40
2019-04-29T01:54:44.327Z,89.60
2019-04-29T01:57:14.734Z,91.70
2019-04-29T01:59:45.902Z,91.10
2019-04-29T02:02:19.775Z,91.90
2019-04-29T02:04:49.934Z,92.10
2019-04-29T02:07:20.029Z,91.50
2019-04-29T02:10:04.500Z,91.90
2019-04-29T02:12:34.603Z,90.70
2019-04-29T02:15:08.285Z,91.20
2019-04-29T02:17:40.294Z,91.70
2019-04-29T02:20:10.540Z,92.30
2019-04-29T02:22:46.016Z,91.90
2019-04-29T02:25:29.602Z,91.30
2019-04-29T02:27:59.727Z,90.50
2019-04-29T02:30:42.690Z,91.60
2019-04-29T02:33:13.910Z,92.10
2019-04-29T02:35:44.343Z,91.10
2019-04-29T02:38:37.607Z,92.30
2019-04-29T02:41:34.904Z,91.40
2019-04-29T02:44:06.843Z,91.00
2019-04-29T02:46:36.953Z,91.70
2019-04-29T02:49:07.842Z,92.40
2019-04-29T02:51:52.864Z,93.30
2019-04-29T02:54:26.799Z,93.60
2019-04-29T02:57:02.569Z,90.50
2019-04-29T02:59:40.035Z,89.10
2019-04-29T03:02:19.064Z,88.30
2019-04-29T03:05:08.809Z,87.10
2019-04-29T03:07:39.101Z,88.60
2019-04-29T03:10:09.862Z,86.60
2019-04-29T03:12:40.620Z,88.50
2019-04-29T03:15:11.052Z,88.50
2019-04-29T03:17:41.598Z,89.60
2019-04-29T03:20:30.739Z,88.40
2019-04-29T03:23:15.267Z,86.90
2019-04-29T03:25:46.663Z,86.60
2019-04-29T03:28:16.768Z,88.10
2019-04-29T03:30:47.804Z,88.70
2019-04-29T03:33:17.970Z,88.70
2019-04-29T03:35:48.145Z,90.90
2019-04-29T03:38:19.322Z,91.30
2019-04-29T03:40:51.002Z,90.50
2019-04-29T03:43:25.011Z,91.20
2019-04-29T03:45:55.175Z,91.30
2019-04-29T03:48:26.182Z,92.10
2019-04-29T03:50:56.292Z,91.40
2019-04-29T03:53:28.523Z,90.30
2019-04-29T03:55:59.352Z,86.40
2019-04-29T03:58:29.516Z,82.60
2019-04-29T04:01:07.698Z,83.50
2019-04-29T04:03:44.517Z,89.20
2019-04-29T04:06:39.398Z,87.00
2019-04-29T04:09:29.911Z,87.50
2019-04-29T04:12:00.032Z,90.30
2019-04-29T04:14:52.602Z,91.10
2019-04-29T04:17:36.851Z,91.50
2019-04-29T04:20:10.947Z,92.40
2019-04-29T04:22:58.445Z,92.30
2019-04-29T04:25:29.032Z,93.00
2019-04-29T04:28:02.408Z,93.00
2019-04-29T04:30:35.755Z,92.90
2019-04-29T04:33:06.650Z,91.80
2019-04-29T04:35:38.854Z,90.60
2019-04-29T04:38:12.909Z,87.50
2019-04-29T04:40:47.606Z,90.10
2019-04-29T04:43:18.798Z,84.80
2019-04-29T04:45:52.492Z,86.60
2019-04-29T04:50:56.716Z,89.00
2019-04-29T04:53:29.013Z,89.20
2019-04-29T04:56:01.023Z,89.60
2019-04-29T04:58:31.178Z,90.00
2019-04-29T05:01:04.140Z,91.90
2019-04-29T05:03:37.023Z,92.20
2019-04-29T05:06:08.626Z,92.30
2019-04-29T05:08:39.871Z,93.70
2019-04-29T05:11:14.494Z,90.60
2019-04-29T05:13:47.087Z,87.10
2019-04-29T05:16:18.975Z,85.90
2019-04-29T05:18:49.121Z,87.20
2019-04-29T05:21:19.608Z,83.50
2019-04-29T05:23:50.000Z,81.20
2019-04-29T05:26:22.435Z,89.00
2019-04-29T05:28:54.680Z,78.10
2019-04-29T05:31:26.565Z,80.60
2019-04-29T05:33:59.111Z,81.30
2019-04-29T05:36:38.195Z,83.30
2019-04-29T05:39:32.003Z,86.20
2019-04-29T05:42:02.115Z,86.50
2019-04-29T05:44:43.351Z,84.60
2019-04-29T05:47:18.337Z,78.20
2019-04-29T05:50:06.603Z,77.70
2019-04-29T05:52:44.009Z,80.90
2019-04-29T05:55:15.429Z,77.30
2019-04-29T05:57:45.690Z,79.50
2019-04-29T06:00:18.855Z,80.20
2019-04-29T06:02:48.167Z,79.10
2019-04-29T06:05:18.239Z,79.30
2019-04-29T06:07:51.398Z,77.90
2019-04-29T06:10:22.963Z,79.50
2019-04-29T06:12:51.993Z,77.90
2019-04-29T06:15:22.134Z,79.70
2019-04-29T06:17:52.400Z,79.50
2019-04-29T06:20:22.963Z,77.00
2019-04-29T06:22:53.238Z,71.60
2019-04-29T06:25:23.353Z,70.00
2019-04-29T06:27:53.552Z,70.10
2019-04-29T06:30:23.640Z,70.90
2019-04-29T06:32:53.772Z,70.50
2019-04-29T06:35:23.894Z,69.80
2019-04-29T06:37:54.328Z,64.60
2019-04-29T06:40:24.448Z,64.00
2019-04-29T06:42:55.195Z,67.00
2019-04-29T06:45:25.503Z,66.20
2019-04-29T06:47:55.575Z,65.20
2019-04-29T06:50:25.721Z,67.40
2019-04-29T06:52:55.872Z,64.70
2019-04-29T06:55:26.078Z,65.40
2019-04-29T06:57:56.204Z,64.30
2019-04-29T07:00:26.352Z,61.20
2019-04-29T07:02:56.463Z,61.30
2019-04-29T07:05:26.603Z,61.10
2019-04-29T07:07:56.706Z,58.40
2019-04-29T07:10:27.359Z,53.60
2019-04-29T07:12:57.539Z,55.40
2019-04-29T07:15:27.682Z,54.80
2019-04-29T07:17:59.260Z,53.40
2019-04-29T07:20:32.462Z,52.90
2019-04-29T07:23:02.632Z,52.80
2019-04-29T07:25:32.764Z,51.00
2019-04-29T07:28:27.463Z,51.30
2019-04-29T07:31:10.040Z,52.00
2019-04-29T07:33:39.100Z,54.10
2019-04-29T07:36:11.282Z,53.00
2019-04-29T07:38:41.956Z,50.10
2019-04-29T07:41:14.191Z,52.10
2019-04-29T07:43:44.587Z,52.80
2019-04-29T07:46:29.287Z,54.00
2019-04-29T07:49:01.659Z,51.40
2019-04-29T07:51:34.796Z,48.20
2019-04-29T07:54:03.636Z,47.20
2019-04-29T07:56:37.820Z,49.10
2019-04-29T07:59:06.170Z,42.70
2019-04-29T08:01:36.276Z,43.20
2019-04-29T08:04:06.475Z,44.50
2019-04-29T08:06:38.177Z,39.40
2019-04-29T08:09:09.702Z,40.90
2019-04-29T08:11:40.034Z,41.30
2019-04-29T08:14:11.708Z,39.60
2019-04-29T08:16:42.223Z,38.90
2019-04-29T08:19:12.375Z,37.20
2019-04-29T08:21:45.614Z,39.80
2019-04-29T08:24:15.869Z,40.70
2019-04-29T08:26:47.759Z,38.60
2019-04-29T08:29:18.050Z,33.10
2019-04-29T08:31:51.800Z,37.20
2019-04-29T08:34:23.204Z,36.60
2019-04-29T08:36:53.523Z,35.90
2019-04-29T08:39:25.000Z,34.60
2019-04-29T08:41:58.869Z,31.70
2019-04-29T08:44:49.730Z,31.70
2019-04-29T08:47:30.414Z,29.30
2019-04-29T08:49:56.421Z,31.50
2019-04-29T08:52:26.571Z,31.90
2019-04-29T08:54:57.359Z,31.70
2019-04-29T08:57:27.563Z,34.40
2019-04-29T08:59:59.672Z,35.20
2019-04-29T09:02:34.891Z,32.00
2019-04-29T09:05:06.750Z,27.40
2019-04-29T09:07:36.688Z,28.40
2019-04-29T09:10:09.194Z,27.20
2019-04-29T09:12:39.292Z,26.50
2019-04-29T09:15:09.967Z,26.30
2019-04-29T09:17:40.138Z,27.00
2019-04-29T09:20:10.461Z,26.90
2019-04-29T09:22:44.902Z,25.40
2019-04-29T09:25:34.972Z,24.20
2019-04-29T09:28:08.892Z,25.40
2019-04-29T09:30:39.103Z,27.10
2019-04-29T09:33:13.181Z,27.20
2019-04-29T09:35:41.459Z,25.70
2019-04-29T09:38:11.643Z,25.30
2019-04-29T09:40:47.584Z,23.60
2019-04-29T09:43:33.289Z,23.30
2019-04-29T09:46:06.920Z,22.60
2019-04-29T09:48:37.299Z,23.60
2019-04-29T09:51:17.324Z,22.70
2019-04-29T09:53:39.398Z,22.80
2019-04-29T09:56:09.940Z,20.70
2019-04-29T09:58:40.076Z,20.40
2019-04-29T10:01:29.908Z,21.10
2019-04-29T10:04:37.290Z,22.80
2019-04-29T10:07:08.700Z,22.50
2019-04-29T10:09:38.992Z,19.90
2019-04-29T10:12:09.266Z,21.00
2019-04-29T10:14:39.519Z,20.10
2019-04-29T10:17:21.463Z,20.30
2019-04-29T10:20:02.581Z,20.80
2019-04-29T10:22:32.781Z,18.80
2019-04-29T10:25:03.008Z,18.40
2019-04-29T10:27:33.207Z,19.30
2019-04-29T10:30:03.560Z,19.40
2019-04-29T10:32:37.730Z,18.80
2019-04-29T10:35:08.861Z,19.20
2019-04-29T10:37:39.662Z,18.20
2019-04-29T10:40:41.368Z,18.30
2019-04-29T10:43:18.079Z,18.40
2019-04-29T10:46:13.206Z,18.10
2019-04-29T10:48:50.253Z,17.60
2019-04-29T10:51:23.322Z,17.60
2019-04-29T10:53:52.772Z,17.50
2019-04-29T10:56:22.997Z,17.10
2019-04-29T10:58:53.099Z,18.60
2019-04-29T11:02:13.353Z,18.90
2019-04-29T11:04:45.233Z,16.70
2019-04-29T11:07:26.607Z,16.70
2019-04-29T11:09:58.711Z,17.20
2019-04-29T11:12:28.807Z,16.20
2019-04-29T11:15:01.531Z,17.90
2019-04-29T11:17:34.807Z,17.00
2019-04-29T11:20:04.029Z,16.60
2019-04-29T11:22:39.357Z,15.80
2019-04-29T11:25:51.178Z,15.40
2019-04-29T11:28:17.827Z,16.70
2019-04-29T11:30:49.683Z,15.80
2019-04-29T11:33:29.601Z,16.40
2019-04-29T11:36:05.973Z,16.30
2019-04-29T11:38:38.383Z,15.00
2019-04-29T11:41:12.257Z,15.40
2019-04-29T11:43:40.407Z,14.70
2019-04-29T11:46:14.514Z,15.70
2019-04-29T11:48:44.273Z,14.90
2019-04-29T11:51:48.615Z,14.90
2019-04-29T11:54:12.834Z,13.20
2019-04-29T11:56:44.212Z,14.80
2019-04-29T11:59:30.144Z,14.10
2019-04-29T12:02:36.314Z,13.80
2019-04-29T12:04:59.174Z,15.20
2019-04-29T12:07:32.542Z,14.20
2019-04-29T12:10:02.223Z,12.40
2019-04-29T12:12:33.054Z,12.20
2019-04-29T12:15:15.446Z,11.90
2019-04-29T12:17:56.131Z,12.30
2019-04-29T12:20:46.885Z,13.00
2019-04-29T12:23:17.482Z,12.30
2019-04-29T12:25:47.711Z,12.60
2019-04-29T12:28:19.668Z,10.90
2019-04-29T12:30:51.685Z,12.60
2019-04-29T12:33:26.980Z,11.90
2019-04-29T12:36:05.057Z,11.80
2019-04-29T12:38:52.552Z,11.20
2019-04-29T12:41:48.586Z,12.50
2019-04-29T12:44:34.939Z,13.20
2019-04-29T12:47:26.289Z,12.50
2019-04-29T12:49:50.696Z,12.60
2019-04-29T12:52:20.982Z,12.00
2019-04-29T12:54:51.460Z,11.80
2019-04-29T12:57:23.550Z,11.30
2019-04-29T12:59:55.328Z,11.60
2019-04-29T13:02:45.617Z,10.50
2019-04-29T13:05:32.684Z,12.50
2019-04-29T13:08:30.872Z,11.40
2019-04-29T13:11:03.042Z,13.10
2019-04-29T13:13:33.650Z,10.80
2019-04-29T13:16:22.651Z,11.50
2019-04-29T13:19:11.694Z,11.00
2019-04-29T13:21:32.719Z,12.00
2019-04-29T13:24:13.570Z,10.40
2019-04-29T13:26:37.326Z,11.70
2019-04-29T13:29:07.146Z,12.70
2019-04-29T13:31:38.862Z,14.30
2019-04-29T13:34:24.324Z,12.30
2019-04-29T13:37:07.106Z,12.60
2019-04-29T13:39:39.269Z,13.10
2019-04-29T13:42:08.051Z,11.80
2019-04-29T13:44:42.592Z,11.30
2019-04-29T13:47:34.758Z,11.80
2019-04-29T13:50:23.609Z,12.50
2019-04-29T13:52:50.540Z,13.00
2019-04-29T13:55:46.570Z,9.50
2019-04-29T13:57:54.854Z,9.30
2019-04-29T14:00:49.514Z,8.20
2019-04-29T14:03:23.943Z,10.10
2019-04-29T14:06:03.980Z,10.00
2019-04-29T14:08:28.714Z,11.00
2019-04-29T14:10:58.193Z,9.20
2019-04-29T14:13:28.363Z,9.00
2019-04-29T14:15:58.686Z,10.80
2019-04-29T14:18:29.010Z,10.40
2019-04-29T14:20:59.148Z,10.60
2019-04-29T14:23:29.235Z,11.10
2019-04-29T14:25:59.364Z,8.50
2019-04-29T14:28:29.931Z,10.20
2019-04-29T14:31:00.332Z,9.10
2019-04-29T14:33:35.685Z,9.40
2019-04-29T14:36:07.981Z,9.40
2019-04-29T14:38:40.658Z,9.10
2019-04-29T14:41:14.216Z,10.20
2019-04-29T14:43:50.602Z,9.80
2019-04-29T14:46:35.726Z,9.00
2019-04-29T14:49:22.422Z,8.70
2019-04-29T14:51:55.818Z,9.90
2019-04-29T14:54:26.258Z,10.50
2019-04-29T14:56:56.973Z,11.10
2019-04-29T14:59:28.351Z,9.90
2019-04-29T15:02:02.766Z,11.50
2019-04-29T15:04:41.681Z,11.50
2019-04-29T15:07:14.736Z,10.80
2019-04-29T15:09:58.668Z,10.20
2019-04-29T15:13:06.798Z,11.00
2019-04-29T15:16:04.792Z,12.00
2019-04-29T15:18:50.589Z,10.50
2019-04-29T15:37:03.111Z,9.80
2019-04-29T15:39:49.697Z,10.40
2019-04-29T15:50:37.109Z,11.70
2019-04-29T16:19:33.953Z,14.30
2019-04-29T16:30:19.528Z,13.10
2019-04-29T16:32:57.609Z,13.30
2019-04-29T16:35:34.950Z,12.80
2019-04-29T16:38:11.690Z,13.80
2019-04-29T16:41:27.783Z,14.00
2019-04-29T16:47:15.852Z,14.30
2019-04-29T16:49:48.076Z,15.10
2019-04-29T16:52:35.867Z,14.30
2019-04-29T16:55:07.128Z,14.40
2019-04-29T16:57:39.342Z,15.30
2019-04-29T17:00:13.830Z,16.60
2019-04-29T17:02:43.943Z,16.90
2019-04-29T17:05:14.376Z,17.90
2019-04-29T17:12:05.812Z,17.30
2019-04-29T17:18:46.930Z,17.80
2019-04-29T17:23:35.730Z,19.50
2019-04-29T17:25:05.444Z,20.50
2019-04-29T17:35:18.936Z,17.80
2019-04-29T18:01:55.349Z,40.30
2019-04-29T18:04:49.683Z,42.60
2019-04-29T18:07:27.958Z,42.70
2019-04-29T18:10:34.862Z,42.00
2019-04-29T18:13:23.682Z,43.20
2019-04-29T18:16:01.644Z,42.10
2019-04-29T18:18:46.400Z,43.00
2019-04-29T18:21:43.489Z,43.20
2019-04-29T18:24:21.461Z,41.70
2019-04-29T18:27:04.533Z,42.00
2019-04-29T18:29:41.634Z,45.70
2019-04-29T18:32:15.770Z,44.20
2019-04-29T18:34:47.275Z,42.70
2019-04-29T18:37:19.505Z,44.30
2019-04-29T18:39:57.604Z,44.90
2019-04-29T18:42:29.770Z,45.10
2019-04-29T18:45:00.500Z,49.20
2019-04-29T18:47:48.996Z,48.30
2019-04-29T18:50:56.842Z,49.60
2019-04-29T18:54:30.101Z,49.30
2019-04-29T18:57:28.731Z,46.50
2019-04-29T19:11:46.189Z,54.00
2019-04-29T19:14:25.431Z,54.30
2019-04-29T19:17:21.828Z,55.00
2019-04-29T19:19:57.012Z,50.90
2019-04-29T19:22:55.821Z,55.80
2019-04-29T19:29:01.333Z,55.40
2019-04-29T19:31:36.888Z,57.50
2019-04-29T19:34:09.668Z,58.50
2019-04-29T19:36:38.945Z,57.50
2019-04-29T19:39:11.052Z,58.10
2019-04-29T19:41:41.462Z,60.10
2019-04-29T19:44:15.417Z,61.90
2019-04-29T19:46:49.481Z,66.10
2019-04-29T19:49:25.809Z,70.00
2019-04-29T19:51:56.145Z,74.30
2019-04-29T19:54:31.857Z,72.30
2019-04-29T19:57:09.267Z,69.70
2019-04-29T19:59:50.689Z,67.60
2019-04-29T20:02:20.519Z,69.10
2019-04-29T20:05:04.798Z,69.10
2019-04-29T20:07:41.115Z,68.30
2019-04-29T20:10:09.945Z,74.60
2019-04-29T20:12:39.688Z,73.80
2019-04-29T20:15:16.656Z,75.80
2019-04-29T20:18:23.721Z,77.10
2019-04-29T20:23:27.793Z,79.80
2019-04-29T20:23:42.026Z,81.20
2019-04-29T20:33:15.942Z,84.70
2019-04-29T21:59:41.427Z,91.00
2019-04-29T22:02:12.997Z,91.80
2019-04-29T22:04:44.992Z,92.90
2019-04-29T22:07:21.650Z,94.00
2019-04-29T22:09:52.045Z,92.90
2019-04-29T22:12:26.636Z,91.00
2019-04-29T22:14:59.503Z,91.30
2019-04-29T22:17:32.762Z,87.40
2019-04-29T22:20:04.131Z,86.80
2019-04-29T22:22:36.621Z,87.60
2019-04-29T22:25:10.001Z,85.70
2019-04-29T22:27:47.511Z,87.80
2019-04-29T22:30:19.436Z,91.10
2019-04-29T22:32:58.070Z,91.00
2019-04-29T22:35:27.688Z,88.60
2019-04-29T22:37:59.556Z,89.80
2019-04-29T22:40:34.123Z,91.10
2019-04-29T22:43:26.378Z,91.40
2019-04-29T22:45:58.100Z,91.10
2019-04-29T22:48:32.116Z,96.20
2019-04-29T22:51:02.899Z,90.70
2019-04-29T22:53:33.362Z,90.00
2019-04-29T22:56:03.585Z,91.00
2019-04-29T22:58:39.574Z,91.10
2019-04-29T23:01:08.902Z,89.10
2019-04-29T23:03:45.093Z,88.70
2019-04-29T23:06:17.520Z,87.50
2019-04-29T23:08:48.803Z,87.80
2019-04-29T23:11:20.441Z,85.50
2019-04-29T23:14:01.677Z,87.70
2019-04-29T23:16:35.673Z,89.10
2019-04-29T23:19:09.794Z,91.00
2019-04-29T23:22:16.971Z,91.30
2019-04-29T23:25:05.804Z,92.20
2019-04-29T23:27:36.640Z,89.90
2019-04-29T23:30:08.000Z,90.70
2019-04-29T23:32:39.536Z,90.80
2019-04-29T23:35:11.332Z,90.50
2019-04-29T23:37:41.867Z,91.20
2019-04-29T23:40:12.124Z,90.20
2019-04-29T23:42:47.788Z,90.10
2019-04-29T23:45:20.770Z,90.70
2019-04-29T23:47:49.281Z,90.70
2019-04-29T23:50:20.621Z,92.10
2019-04-29T23:52:52.044Z,92.30
2019-04-29T23:55:27.361Z,90.70
2019-04-29T23:58:10.943Z,91.20
